Time;durP1;ratioP1;P1;durP2;ratioP2;P2;SDS_P1;SDS_P2;PMS_P1;PMS_P2;Temp;Humidity;BMP_temperature;BMP_pressure;BME280_temperature;BME280_humidity;BME280_pressure;Samples;Min_cycle;Max_cycle;Signal;HPM_P1;HPM_P2
2022/08/01 00:00:27;;;;;;;7.05;2.83;;;;;;;;;;4977310;28;20019;-72
2022/08/01 00:02:53;;;;;;;7.93;2.60;;;;;;;;;;4977214;28;20469;-74
2022/08/01 00:05:19;;;;;;;4.45;2.53;;;;;;;;;;4976594;28;20050;-70
2022/08/01 00:07:45;;;;;;;8.90;3.20;;;;;;;;;;4959698;28;20035;-73
2022/08/01 00:10:12;;;;;;;7.60;2.88;;;;;;;;;;4977289;28;20385;-72
2022/08/01 00:12:38;;;;;;;8.18;2.92;;;;;;;;;;4959658;28;20070;-74
2022/08/01 00:15:09;;;;;;;6.00;2.80;;;;;;;;;;4959553;28;20462;-70
2022/08/01 00:17:35;;;;;;;8.15;3.38;;;;;;;;;;4977469;28;20046;-72
2022/08/01 00:20:03;;;;;;;8.35;3.20;;;;;;;;;;4976864;28;20038;-72
2022/08/01 00:22:29;;;;;;;7.35;2.70;;;;;;;;;;4976185;28;20080;-73
2022/08/01 00:24:55;;;;;;;7.80;2.50;;;;;;;;;;4976699;28;20485;-72
2022/08/01 00:27:21;;;;;;;8.20;2.80;;;;;;;;;;4977230;28;20026;-70
2022/08/01 00:29:47;;;;;;;7.20;2.60;;;;;;;;;;4976681;28;20026;-71
2022/08/01 00:32:13;;;;;;;5.35;2.63;;;;;;;;;;4976878;28;20027;-73
2022/08/01 00:34:39;;;;;;;11.30;2.90;;;;;;;;;;4959203;28;20030;-72
2022/08/01 00:37:05;;;;;;;6.15;2.53;;;;;;;;;;4976533;28;20045;-74
2022/08/01 00:39:32;;;;;;;6.60;2.60;;;;;;;;;;4959677;28;20027;-70
2022/08/01 00:41:58;;;;;;;4.95;2.33;;;;;;;;;;4976509;28;20026;-72
2022/08/01 00:44:24;;;;;;;5.38;2.42;;;;;;;;;;4976342;28;20041;-72
2022/08/01 00:46:50;;;;;;;6.93;2.70;;;;;;;;;;4959355;28;20019;-70
2022/08/01 00:49:17;;;;;;;7.97;2.58;;;;;;;;;;4976628;28;20030;-70
2022/08/01 00:51:43;;;;;;;4.47;2.45;;;;;;;;;;4976284;28;20089;-70
2022/08/01 00:54:09;;;;;;;4.78;2.47;;;;;;;;;;4976191;28;20022;-74
2022/08/01 00:56:35;;;;;;;4.60;2.17;;;;;;;;;;4976181;28;20038;-71
2022/08/01 00:59:01;;;;;;;4.40;2.55;;;;;;;;;;4976339;28;20038;-70
2022/08/01 01:01:27;;;;;;;4.72;2.42;;;;;;;;;;4975981;28;20161;-73
2022/08/01 01:03:53;;;;;;;3.20;2.13;;;;;;;;;;4975969;28;20122;-74
2022/08/01 01:06:37;;;;;;;3.47;2.20;;;;;;;;;;4976241;28;20033;-71
2022/08/01 01:09:03;;;;;;;7.50;2.72;;;;;;;;;;4976588;28;20023;-73
2022/08/01 01:11:32;;;;;;;4.93;2.30;;;;;;;;;;4958533;28;20406;-73
2022/08/01 01:14:02;;;;;;;5.72;2.42;;;;;;;;;;4975821;28;20504;-71
2022/08/01 01:16:31;;;;;;;7.85;3.15;;;;;;;;;;4975758;28;20035;-70
2022/08/01 01:19:00;;;;;;;4.28;2.10;;;;;;;;;;4975764;28;20393;-69
2022/08/01 01:21:33;;;;;;;3.08;2.20;;;;;;;;;;4975724;28;20037;-70
2022/08/01 01:24:11;;;;;;;4.40;2.20;;;;;;;;;;4975819;28;20106;-72
2022/08/01 01:26:43;;;;;;;3.95;2.28;;;;;;;;;;4976117;28;20030;-72
2022/08/01 01:29:17;;;;;;;4.18;2.20;;;;;;;;;;4975559;28;20023;-70
2022/08/01 01:31:49;;;;;;;3.47;2.13;;;;;;;;;;4975548;28;20058;-71
2022/08/01 01:34:16;;;;;;;4.03;2.08;;;;;;;;;;4975116;28;20038;-72
2022/08/01 01:36:43;;;;;;;4.57;2.13;;;;;;;;;;4975673;28;20035;-71
2022/08/01 01:39:09;;;;;;;3.97;2.38;;;;;;;;;;4975321;28;20430;-74
2022/08/01 01:41:37;;;;;;;5.22;2.25;;;;;;;;;;4975275;28;20486;-72
2022/08/01 01:44:04;;;;;;;3.30;2.22;;;;;;;;;;4975179;28;20037;-72
2022/08/01 01:46:31;;;;;;;4.78;1.90;;;;;;;;;;4975258;28;20437;-71
2022/08/01 01:48:57;;;;;;;3.72;2.10;;;;;;;;;;4975184;28;20027;-74
2022/08/01 01:51:25;;;;;;;4.38;2.13;;;;;;;;;;4975247;28;20031;-73
2022/08/01 01:53:53;;;;;;;4.43;2.50;;;;;;;;;;4975121;28;20026;-70
2022/08/01 01:56:19;;;;;;;3.45;1.92;;;;;;;;;;4975075;28;20034;-69
2022/08/01 01:58:46;;;;;;;4.68;2.35;;;;;;;;;;4957649;28;20401;-71
2022/08/01 02:01:13;;;;;;;4.15;2.22;;;;;;;;;;4974921;28;20034;-69
2022/08/01 02:03:41;;;;;;;4.22;2.03;;;;;;;;;;4974682;28;20409;-73
2022/08/01 02:06:07;;;;;;;3.05;1.90;;;;;;;;;;4974939;28;20027;-74
2022/08/01 02:08:35;;;;;;;3.70;2.10;;;;;;;;;;4975368;28;20022;-71
2022/08/01 02:11:20;;;;;;;3.88;2.20;;;;;;;;;;4957442;28;20537;-70
2022/08/01 02:14:08;;;;;;;4.05;2.05;;;;;;;;;;4974804;28;20105;-73
2022/08/01 02:16:34;;;;;;;3.92;2.22;;;;;;;;;;4957192;28;20058;-71
2022/08/01 02:19:01;;;;;;;5.30;2.40;;;;;;;;;;4974731;28;20101;-72
2022/08/01 02:21:28;;;;;;;4.78;2.03;;;;;;;;;;4975241;28;20047;-71
2022/08/01 02:23:56;;;;;;;5.50;2.13;;;;;;;;;;4974882;28;20033;-72
2022/08/01 02:26:23;;;;;;;3.58;1.65;;;;;;;;;;4975410;28;20033;-71
2022/08/01 02:28:49;;;;;;;4.15;2.25;;;;;;;;;;4974576;28;20114;-72
2022/08/01 02:31:17;;;;;;;3.40;2.00;;;;;;;;;;4974520;28;20066;-72
2022/08/01 02:33:48;;;;;;;4.10;2.22;;;;;;;;;;4974566;28;20506;-71
2022/08/01 02:36:16;;;;;;;3.85;2.28;;;;;;;;;;4974807;28;20419;-71
2022/08/01 02:38:43;;;;;;;4.00;2.15;;;;;;;;;;4974451;28;20029;-70
2022/08/01 02:41:21;;;;;;;4.40;2.10;;;;;;;;;;4974682;28;20397;-74
2022/08/01 02:43:50;;;;;;;2.72;2.00;;;;;;;;;;4974617;28;20030;-70
2022/08/01 02:46:18;;;;;;;3.10;2.00;;;;;;;;;;4974521;28;20053;-74
2022/08/01 02:48:45;;;;;;;3.70;2.00;;;;;;;;;;4974375;28;20019;-70
2022/08/01 02:51:11;;;;;;;4.70;2.58;;;;;;;;;;4974645;28;20027;-72
2022/08/01 02:53:39;;;;;;;4.35;2.00;;;;;;;;;;4974406;28;20430;-71
2022/08/01 02:56:06;;;;;;;3.20;1.88;;;;;;;;;;4974292;28;20035;-71
2022/08/01 02:58:34;;;;;;;4.18;1.90;;;;;;;;;;4974284;28;20023;-72
2022/08/01 03:01:00;;;;;;;3.97;1.77;;;;;;;;;;4974488;28;20053;-73
2022/08/01 03:03:26;;;;;;;4.28;1.83;;;;;;;;;;4956646;28;20037;-71
2022/08/01 03:05:53;;;;;;;3.80;1.73;;;;;;;;;;4974796;28;20023;-72
2022/08/01 03:08:20;;;;;;;3.33;2.17;;;;;;;;;;4974148;28;20030;-73
2022/08/01 03:10:47;;;;;;;2.53;2.00;;;;;;;;;;4974416;28;20105;-72
2022/08/01 03:13:14;;;;;;;3.10;2.00;;;;;;;;;;4974131;28;20472;-73
2022/08/01 03:15:41;;;;;;;2.25;1.55;;;;;;;;;;4974382;28;20031;-72
2022/08/01 03:18:08;;;;;;;2.38;1.80;;;;;;;;;;4974085;28;20038;-72
2022/08/01 03:20:34;;;;;;;3.75;1.77;;;;;;;;;;4974077;28;20066;-73
2022/08/01 03:23:03;;;;;;;1.95;1.58;;;;;;;;;;4974403;28;20070;-70
2022/08/01 03:25:31;;;;;;;1.77;1.20;;;;;;;;;;4974474;28;20034;-71
2022/08/01 03:27:58;;;;;;;2.35;1.30;;;;;;;;;;4957269;28;20023;-71
2022/08/01 03:30:25;;;;;;;2.33;1.30;;;;;;;;;;4974247;28;20417;-72
2022/08/01 03:32:51;;;;;;;1.02;0.98;;;;;;;;;;4974236;28;20054;-72
2022/08/01 03:35:18;;;;;;;2.72;1.13;;;;;;;;;;4973960;28;20030;-72
2022/08/01 03:37:49;;;;;;;1.02;0.88;;;;;;;;;;4973966;28;20493;-72
2022/08/01 03:40:22;;;;;;;1.00;0.80;;;;;;;;;;4974223;28;20031;-73
2022/08/01 03:42:50;;;;;;;0.98;0.82;;;;;;;;;;4973911;28;20055;-71
2022/08/01 03:45:36;;;;;;;1.23;0.80;;;;;;;;;;4973816;28;20528;-70
2022/08/01 03:48:03;;;;;;;0.45;0.45;;;;;;;;;;4973740;28;20027;-74
2022/08/01 03:50:33;;;;;;;0.63;0.63;;;;;;;;;;4956519;28;20058;-71
2022/08/01 03:53:00;;;;;;;1.08;0.50;;;;;;;;;;4973858;28;20034;-70
2022/08/01 03:55:27;;;;;;;0.45;0.43;;;;;;;;;;4973782;28;20031;-73
2022/08/01 03:57:53;;;;;;;0.40;0.40;;;;;;;;;;4976755;28;20389;-72
2022/08/01 04:00:19;;;;;;;0.50;0.50;;;;;;;;;;4959793;28;20031;-69
2022/08/01 04:02:49;;;;;;;0.77;0.70;;;;;;;;;;4977202;28;20521;-72
2022/08/01 04:05:16;;;;;;;0.47;0.47;;;;;;;;;;4976779;28;20513;-71
2022/08/01 04:07:46;;;;;;;0.50;0.50;;;;;;;;;;4977129;28;20481;-74
2022/08/01 04:10:12;;;;;;;0.50;0.50;;;;;;;;;;4977131;28;20023;-71
2022/08/01 04:12:38;;;;;;;2.17;0.80;;;;;;;;;;4976967;28;20023;-70
2022/08/01 04:15:05;;;;;;;0.40;0.40;;;;;;;;;;4977480;28;20035;-74
2022/08/01 04:17:31;;;;;;;0.60;0.60;;;;;;;;;;4976979;28;20023;-73
2022/08/01 04:19:57;;;;;;;0.40;0.40;;;;;;;;;;4977144;28;20039;-70
2022/08/01 04:22:23;;;;;;;0.57;0.57;;;;;;;;;;4976837;28;20038;-72
2022/08/01 04:24:52;;;;;;;0.50;0.50;;;;;;;;;;4977266;28;20027;-73
2022/08/01 04:27:22;;;;;;;0.40;0.40;;;;;;;;;;4977774;28;20381;-70
2022/08/01 04:29:50;;;;;;;0.47;0.47;;;;;;;;;;4976673;28;20038;-72
2022/08/01 04:32:17;;;;;;;0.50;0.50;;;;;;;;;;4976915;28;20030;-72
2022/08/01 04:34:46;;;;;;;0.45;0.45;;;;;;;;;;4976633;28;20023;-73
2022/08/01 04:37:13;;;;;;;0.90;0.65;;;;;;;;;;4976803;28;20031;-70
2022/08/01 04:39:40;;;;;;;0.50;0.50;;;;;;;;;;4976837;28;20065;-75
2022/08/01 04:42:07;;;;;;;0.47;0.47;;;;;;;;;;4959110;28;20030;-72
2022/08/01 04:44:34;;;;;;;2.53;0.80;;;;;;;;;;4976371;28;20106;-70
2022/08/01 04:47:01;;;;;;;1.25;0.63;;;;;;;;;;4976443;28;20027;-71
2022/08/01 04:49:27;;;;;;;0.60;0.60;;;;;;;;;;4976338;28;20029;-72
2022/08/01 04:51:57;;;;;;;1.00;0.70;;;;;;;;;;4976335;28;20023;-71
2022/08/01 04:54:30;;;;;;;0.63;0.63;;;;;;;;;;4977128;28;20104;-72
2022/08/01 04:56:59;;;;;;;1.73;0.70;;;;;;;;;;4976528;28;20038;-72
2022/08/01 04:59:41;;;;;;;0.25;0.25;;;;;;;;;;4976439;28;20026;-70
2022/08/01 05:02:10;;;;;;;1.02;0.60;;;;;;;;;;4976731;28;20112;-74
2022/08/01 05:04:36;;;;;;;4.45;0.60;;;;;;;;;;4975777;28;20567;-72
2022/08/01 05:07:02;;;;;;;1.45;0.40;;;;;;;;;;4975867;28;20392;-69
2022/08/01 05:09:28;;;;;;;0.50;0.40;;;;;;;;;;4975975;28;20146;-73
2022/08/01 05:11:54;;;;;;;0.75;0.70;;;;;;;;;;4976182;28;20130;-70
2022/08/01 05:14:20;;;;;;;0.30;0.30;;;;;;;;;;4975900;28;20027;-72
2022/08/01 05:16:46;;;;;;;0.43;0.43;;;;;;;;;;4976319;28;20037;-70
2022/08/01 05:19:12;;;;;;;0.70;0.57;;;;;;;;;;4976282;28;20102;-70
2022/08/01 05:21:38;;;;;;;0.40;0.35;;;;;;;;;;4976042;28;20037;-72
2022/08/01 05:24:05;;;;;;;0.98;0.65;;;;;;;;;;4975883;28;20034;-71
2022/08/01 05:26:31;;;;;;;0.88;0.60;;;;;;;;;;4976409;28;20051;-73
2022/08/01 05:28:57;;;;;;;0.70;0.57;;;;;;;;;;4975600;28;20366;-75
2022/08/01 05:31:23;;;;;;;1.65;0.65;;;;;;;;;;4975567;28;20033;-71
2022/08/01 05:33:49;;;;;;;0.52;0.52;;;;;;;;;;4975491;28;20023;-70
2022/08/01 05:36:15;;;;;;;0.57;0.57;;;;;;;;;;4975579;28;20441;-71
2022/08/01 05:38:41;;;;;;;0.63;0.63;;;;;;;;;;4958119;28;20030;-70
2022/08/01 05:41:07;;;;;;;0.75;0.40;;;;;;;;;;4975626;28;20110;-70
2022/08/01 05:43:33;;;;;;;0.98;0.60;;;;;;;;;;4975542;28;20111;-73
2022/08/01 05:46:00;;;;;;;1.10;0.55;;;;;;;;;;4975289;28;20019;-70
2022/08/01 05:48:26;;;;;;;0.73;0.40;;;;;;;;;;4975272;28;20393;-71
2022/08/01 05:50:53;;;;;;;5.15;0.90;;;;;;;;;;4975206;28;20077;-71
2022/08/01 05:53:19;;;;;;;0.93;0.70;;;;;;;;;;4975199;28;20023;-72
2022/08/01 05:55:45;;;;;;;0.65;0.50;;;;;;;;;;4975363;28;20073;-72
2022/08/01 05:58:11;;;;;;;7.72;1.20;;;;;;;;;;4975083;28;20026;-71
2022/08/01 06:00:37;;;;;;;1.13;0.90;;;;;;;;;;4974995;28;20026;-71
2022/08/01 06:03:03;;;;;;;2.15;0.88;;;;;;;;;;4975095;28;20066;-69
2022/08/01 06:05:29;;;;;;;2.13;0.80;;;;;;;;;;4974502;28;20047;-70
2022/08/01 06:07:55;;;;;;;1.55;0.80;;;;;;;;;;4974928;28;20077;-71
2022/08/01 06:10:21;;;;;;;1.15;0.77;;;;;;;;;;4975012;28;20030;-72
2022/08/01 06:12:48;;;;;;;1.88;0.90;;;;;;;;;;4974845;28;20026;-71
2022/08/01 06:15:14;;;;;;;2.55;0.95;;;;;;;;;;4974412;28;20489;-71
2022/08/01 06:17:41;;;;;;;2.38;1.05;;;;;;;;;;4974741;28;20109;-68
2022/08/01 06:20:07;;;;;;;0.82;0.70;;;;;;;;;;4974443;28;20023;-71
2022/08/01 06:22:33;;;;;;;0.73;0.73;;;;;;;;;;4975232;28;20035;-71
2022/08/01 06:24:59;;;;;;;0.77;0.77;;;;;;;;;;4974592;28;20417;-73
2022/08/01 06:27:25;;;;;;;4.13;1.10;;;;;;;;;;4975189;28;20038;-73
2022/08/01 06:29:53;;;;;;;2.05;0.82;;;;;;;;;;4957261;28;20055;-73
2022/08/01 06:32:19;;;;;;;1.75;1.10;;;;;;;;;;4974554;28;20076;-73
2022/08/01 06:34:45;;;;;;;0.80;0.80;;;;;;;;;;4974790;28;20027;-70
2022/08/01 06:37:13;;;;;;;2.63;1.15;;;;;;;;;;4974507;28;20026;-72
2022/08/01 06:39:39;;;;;;;1.15;0.90;;;;;;;;;;4974415;28;20029;-72
2022/08/01 06:42:05;;;;;;;1.20;0.98;;;;;;;;;;4974709;28;20110;-71
2022/08/01 06:44:31;;;;;;;1.27;0.80;;;;;;;;;;4973252;28;20054;-71
2022/08/01 06:46:58;;;;;;;1.08;1.00;;;;;;;;;;4957063;28;20031;-72
2022/08/01 06:49:24;;;;;;;0.88;0.70;;;;;;;;;;4974684;28;20098;-70
2022/08/01 06:51:50;;;;;;;1.67;0.93;;;;;;;;;;4974474;28;20027;-72
2022/08/01 06:54:16;;;;;;;2.10;0.98;;;;;;;;;;4974850;28;20022;-72
2022/08/01 06:56:42;;;;;;;0.70;0.70;;;;;;;;;;4974333;28;20078;-71
2022/08/01 06:59:09;;;;;;;1.13;0.98;;;;;;;;;;4956959;28;20029;-73
2022/08/01 07:01:35;;;;;;;0.85;0.85;;;;;;;;;;4974204;28;20031;-72
2022/08/01 07:04:01;;;;;;;0.90;0.90;;;;;;;;;;4974172;28;20058;-73
2022/08/01 07:06:27;;;;;;;1.70;1.20;;;;;;;;;;4974531;28;20105;-72
2022/08/01 07:08:53;;;;;;;1.40;1.30;;;;;;;;;;4974484;28;20481;-72
2022/08/01 07:11:20;;;;;;;4.07;1.48;;;;;;;;;;4974198;28;20474;-71
2022/08/01 07:13:46;;;;;;;1.60;1.30;;;;;;;;;;4974433;28;20030;-72
2022/08/01 07:16:12;;;;;;;1.73;0.90;;;;;;;;;;4974142;28;20496;-71
2022/08/01 07:18:38;;;;;;;3.03;1.13;;;;;;;;;;4974677;28;20027;-71
2022/08/01 07:21:04;;;;;;;0.82;0.80;;;;;;;;;;4974371;28;20035;-72
2022/08/01 07:23:30;;;;;;;1.52;1.13;;;;;;;;;;4956633;28;20034;-73
2022/08/01 07:25:56;;;;;;;1.23;1.02;;;;;;;;;;4974035;28;20035;-70
2022/08/01 07:28:22;;;;;;;2.70;1.00;;;;;;;;;;4974597;28;20023;-72
2022/08/01 07:30:48;;;;;;;2.70;1.00;;;;;;;;;;4974040;28;20495;-73
2022/08/01 07:33:15;;;;;;;0.85;0.85;;;;;;;;;;4977398;28;20385;-70
2022/08/01 07:35:41;;;;;;;1.58;0.90;;;;;;;;;;4977722;28;20039;-71
2022/08/01 07:38:07;;;;;;;1.98;1.10;;;;;;;;;;4977980;28;20102;-72
2022/08/01 07:40:33;;;;;;;1.52;0.70;;;;;;;;;;4977876;28;20426;-73
2022/08/01 07:42:59;;;;;;;1.08;0.98;;;;;;;;;;4977588;28;20026;-72
2022/08/01 07:45:26;;;;;;;1.08;0.95;;;;;;;;;;4977731;28;20090;-71
2022/08/01 07:47:52;;;;;;;1.02;0.93;;;;;;;;;;4977747;28;20023;-71
2022/08/01 07:50:18;;;;;;;0.85;0.68;;;;;;;;;;4960085;28;20030;-70
2022/08/01 07:52:45;;;;;;;4.65;1.20;;;;;;;;;;4977331;28;20556;-71
2022/08/01 07:55:11;;;;;;;3.10;1.23;;;;;;;;;;4977389;28;20058;-71
2022/08/01 07:57:37;;;;;;;1.73;1.08;;;;;;;;;;4977860;28;20384;-72
2022/08/01 08:00:08;;;;;;;1.23;0.93;;;;;;;;;;4977384;28;20537;-73
2022/08/01 08:02:34;;;;;;;2.65;0.90;;;;;;;;;;4977516;28;20027;-71
2022/08/01 08:05:00;;;;;;;0.93;0.88;;;;;;;;;;4976848;28;20043;-72
2022/08/01 08:07:26;;;;;;;0.73;0.70;;;;;;;;;;4977168;28;20139;-71
2022/08/01 08:09:52;;;;;;;1.30;0.95;;;;;;;;;;4977367;28;20022;-70
2022/08/01 08:12:18;;;;;;;1.58;0.80;;;;;;;;;;4959667;28;20034;-70
2022/08/01 08:14:44;;;;;;;1.10;1.00;;;;;;;;;;4977303;28;20034;-72
2022/08/01 08:17:10;;;;;;;3.97;1.20;;;;;;;;;;4959583;28;20034;-71
2022/08/01 08:19:38;;;;;;;1.13;0.90;;;;;;;;;;4976887;28;20038;-72
2022/08/01 08:22:04;;;;;;;0.77;0.75;;;;;;;;;;4959494;28;20031;-72
2022/08/01 08:24:30;;;;;;;1.88;0.90;;;;;;;;;;4977027;28;20081;-71
2022/08/01 08:26:57;;;;;;;1.17;0.88;;;;;;;;;;4977553;28;20106;-70
2022/08/01 08:29:24;;;;;;;0.75;0.75;;;;;;;;;;4976704;28;20019;-72
2022/08/01 08:31:50;;;;;;;0.88;0.88;;;;;;;;;;4977007;28;20078;-71
2022/08/01 08:34:16;;;;;;;0.73;0.73;;;;;;;;;;4977156;28;20023;-71
2022/08/01 08:36:43;;;;;;;0.88;0.88;;;;;;;;;;4976607;28;20485;-71
2022/08/01 08:39:09;;;;;;;1.23;1.13;;;;;;;;;;4976559;28;20026;-71
2022/08/01 08:41:35;;;;;;;1.58;1.10;;;;;;;;;;4976576;28;20469;-71
2022/08/01 08:44:02;;;;;;;1.13;1.00;;;;;;;;;;4976012;28;20054;-71
2022/08/01 08:46:28;;;;;;;1.33;1.20;;;;;;;;;;4976410;28;20098;-71
2022/08/01 08:48:55;;;;;;;1.10;1.00;;;;;;;;;;4976417;28;20441;-72
2022/08/01 08:51:21;;;;;;;1.80;1.40;;;;;;;;;;4976339;28;20026;-72
2022/08/01 08:53:47;;;;;;;2.67;1.42;;;;;;;;;;4976310;28;20450;-73
2022/08/01 08:56:14;;;;;;;1.40;1.30;;;;;;;;;;4976528;28;20098;-71
2022/08/01 08:58:45;;;;;;;2.90;1.25;;;;;;;;;;4976486;28;20496;-72
2022/08/01 09:01:12;;;;;;;2.40;1.20;;;;;;;;;;4976128;28;20034;-72
2022/08/01 09:03:38;;;;;;;2.28;1.30;;;;;;;;;;4975830;28;20047;-71
2022/08/01 09:06:05;;;;;;;1.48;1.30;;;;;;;;;;4976033;28;20015;-72
2022/08/01 09:08:31;;;;;;;3.88;1.38;;;;;;;;;;4976563;28;20385;-72
2022/08/01 09:10:57;;;;;;;3.47;1.77;;;;;;;;;;4958610;28;20022;-70
2022/08/01 09:13:23;;;;;;;3.85;1.50;;;;;;;;;;4975901;28;20545;-71
2022/08/01 09:15:50;;;;;;;1.45;1.35;;;;;;;;;;4976133;28;20543;-71
2022/08/01 09:18:26;;;;;;;3.00;1.45;;;;;;;;;;4975867;28;20397;-71
2022/08/01 09:20:52;;;;;;;1.33;1.23;;;;;;;;;;4975826;28;20023;-72
2022/08/01 09:23:34;;;;;;;1.33;1.23;;;;;;;;;;4975805;28;20092;-70
2022/08/01 09:26:00;;;;;;;1.38;0.93;;;;;;;;;;4975971;28;20055;-71
2022/08/01 09:28:29;;;;;;;6.25;1.00;;;;;;;;;;4976139;28;20489;-72
2022/08/01 09:30:59;;;;;;;0.75;0.75;;;;;;;;;;4975927;28;20078;-71
2022/08/01 09:33:25;;;;;;;1.03;0.70;;;;;;;;;;4975892;28;20051;-72
2022/08/01 09:35:55;;;;;;;3.78;0.90;;;;;;;;;;4958229;28;20023;-71
2022/08/01 09:38:21;;;;;;;;;;;;;;;;;;4975851;28;20031;-70
2022/08/01 09:40:50;;;;;;;1.45;0.80;;;;;;;;;;4975455;28;19906;-72
2022/08/01 09:43:16;;;;;;;1.98;0.70;;;;;;;;;;4975651;28;20031;-70
2022/08/01 09:45:42;;;;;;;1.75;0.65;;;;;;;;;;4957933;28;20027;-71
2022/08/01 09:48:08;;;;;;;0.75;0.75;;;;;;;;;;4975306;28;20023;-72
2022/08/01 09:50:45;;;;;;;0.88;0.82;;;;;;;;;;4975794;28;20449;-72
2022/08/01 09:53:12;;;;;;;1.08;0.90;;;;;;;;;;4975717;28;20054;-71
2022/08/01 09:55:38;;;;;;;0.60;0.60;;;;;;;;;;4974980;28;20042;-72
2022/08/01 09:58:05;;;;;;;0.65;0.65;;;;;;;;;;4975673;28;20026;-72
2022/08/01 10:00:32;;;;;;;2.92;0.90;;;;;;;;;;4975006;28;20038;-71
2022/08/01 10:02:58;;;;;;;1.23;0.77;;;;;;;;;;4975392;28;20037;-71
2022/08/01 10:05:31;;;;;;;0.70;0.70;;;;;;;;;;4974596;28;20042;-71
2022/08/01 10:07:58;;;;;;;2.15;1.25;;;;;;;;;;4975202;28;20023;-71
2022/08/01 10:10:25;;;;;;;1.55;0.90;;;;;;;;;;4974947;28;20031;-72
2022/08/01 10:12:51;;;;;;;1.65;0.90;;;;;;;;;;4974894;28;20436;-71
2022/08/01 10:15:20;;;;;;;1.58;0.90;;;;;;;;;;4974788;28;20030;-70
2022/08/01 10:17:56;;;;;;;1.35;0.88;;;;;;;;;;4975104;28;20030;-72
2022/08/01 10:20:24;;;;;;;1.17;0.93;;;;;;;;;;4974803;28;20035;-72
2022/08/01 10:22:52;;;;;;;1.08;0.98;;;;;;;;;;4974754;28;20489;-72
2022/08/01 10:25:18;;;;;;;1.02;0.82;;;;;;;;;;4974543;28;20030;-71
2022/08/01 10:27:46;;;;;;;1.90;1.13;;;;;;;;;;4975168;28;20027;-71
2022/08/01 10:30:12;;;;;;;1.40;1.05;;;;;;;;;;4974689;28;20038;-70
2022/08/01 10:32:39;;;;;;;5.18;1.40;;;;;;;;;;4974605;28;20027;-71
2022/08/01 10:35:05;;;;;;;1.50;1.00;;;;;;;;;;4974882;28;20128;-70
2022/08/01 10:37:31;;;;;;;1.70;1.00;;;;;;;;;;4974588;28;20101;-71
2022/08/01 10:39:58;;;;;;;1.17;1.08;;;;;;;;;;4974824;28;20027;-70
2022/08/01 10:42:24;;;;;;;1.65;1.00;;;;;;;;;;4974501;28;20078;-71
2022/08/01 10:44:50;;;;;;;3.40;1.23;;;;;;;;;;4974643;28;20035;-72
2022/08/01 10:47:21;;;;;;;2.63;1.20;;;;;;;;;;4974424;28;20054;-71
2022/08/01 10:50:06;;;;;;;0.68;0.68;;;;;;;;;;4974395;28;20027;-71
2022/08/01 10:52:32;;;;;;;1.20;1.10;;;;;;;;;;4974349;28;20023;-71
2022/08/01 10:55:11;;;;;;;1.67;1.00;;;;;;;;;;4974554;28;20026;-70
2022/08/01 10:57:46;;;;;;;2.75;0.98;;;;;;;;;;4974381;28;20031;-70
2022/08/01 11:00:22;;;;;;;1.20;1.10;;;;;;;;;;4974593;28;20560;-70
2022/08/01 11:03:02;;;;;;;1.05;0.93;;;;;;;;;;4956937;28;20396;-71
2022/08/01 11:05:30;;;;;;;1.73;1.30;;;;;;;;;;4974522;28;20421;-71
2022/08/01 11:07:58;;;;;;;0.98;0.88;;;;;;;;;;4978523;28;20027;-72
2022/08/01 11:10:43;;;;;;;2.95;1.00;;;;;;;;;;4978192;28;20086;-72
2022/08/01 11:13:11;;;;;;;1.50;1.30;;;;;;;;;;4960792;28;20031;-72
2022/08/01 11:15:37;;;;;;;4.60;1.02;;;;;;;;;;4978372;28;20073;-71
2022/08/01 11:18:23;;;;;;;1.80;1.35;;;;;;;;;;4978101;28;20106;-72
2022/08/01 11:20:58;;;;;;;1.75;1.30;;;;;;;;;;4977934;28;20082;-72
2022/08/01 11:23:24;;;;;;;2.17;1.27;;;;;;;;;;4977966;28;20055;-71
2022/08/01 11:25:52;;;;;;;1.10;0.93;;;;;;;;;;4977840;28;20026;-71
2022/08/01 11:28:23;;;;;;;1.75;1.20;;;;;;;;;;4978418;28;20428;-70
2022/08/01 11:30:50;;;;;;;1.92;1.10;;;;;;;;;;4977929;28;20019;-70
2022/08/01 11:33:18;;;;;;;3.40;1.42;;;;;;;;;;4978078;28;20031;-72
2022/08/01 11:36:02;;;;;;;2.28;1.30;;;;;;;;;;4977741;28;20374;-71
2022/08/01 11:38:29;;;;;;;2.13;1.08;;;;;;;;;;4977646;28;20496;-70
2022/08/01 11:41:14;;;;;;;1.48;1.30;;;;;;;;;;4977922;28;20031;-71
2022/08/01 11:43:59;;;;;;;1.33;1.17;;;;;;;;;;4978091;28;20027;-71
2022/08/01 11:46:44;;;;;;;2.65;1.50;;;;;;;;;;4977535;28;20031;-72
2022/08/01 11:49:29;;;;;;;1.92;1.50;;;;;;;;;;4977813;28;20046;-71
2022/08/01 11:51:59;;;;;;;1.67;1.40;;;;;;;;;;4977743;28;20031;-71
2022/08/01 11:54:24;;;;;;;;;;;;;;;;;;4978334;28;20027;-71
2022/08/01 11:56:54;;;;;;;1.60;1.40;;;;;;;;;;4977261;28;19913;-71
2022/08/01 11:59:20;;;;;;;2.88;1.60;;;;;;;;;;4977539;28;20085;-70
2022/08/01 12:01:46;;;;;;;1.80;1.48;;;;;;;;;;4977135;28;20030;-72
2022/08/01 12:04:12;;;;;;;1.77;1.55;;;;;;;;;;4977117;28;20568;-70
2022/08/01 12:06:38;;;;;;;2.20;1.70;;;;;;;;;;4977157;28;20023;-72
2022/08/01 12:09:21;;;;;;;3.28;1.52;;;;;;;;;;4977432;28;20022;-72
2022/08/01 12:11:48;;;;;;;2.00;1.60;;;;;;;;;;4977082;28;20544;-72
2022/08/01 12:14:21;;;;;;;3.42;1.60;;;;;;;;;;4977047;28;20030;-71
2022/08/01 12:16:53;;;;;;;2.25;1.60;;;;;;;;;;4976773;28;20047;-71
2022/08/01 12:19:23;;;;;;;3.50;1.70;;;;;;;;;;4976783;28;20037;-72
2022/08/01 12:22:08;;;;;;;2.58;1.52;;;;;;;;;;4976941;28;20026;-71
2022/08/01 12:24:38;;;;;;;2.95;1.80;;;;;;;;;;4959417;28;20042;-72
2022/08/01 12:27:05;;;;;;;2.13;1.70;;;;;;;;;;4959479;28;20026;-70
2022/08/01 12:29:38;;;;;;;2.67;1.30;;;;;;;;;;4977824;28;20027;-70
2022/08/01 12:32:04;;;;;;;1.92;1.45;;;;;;;;;;4977295;28;20098;-70
2022/08/01 12:34:33;;;;;;;1.92;1.23;;;;;;;;;;4977207;28;20458;-71
2022/08/01 12:37:01;;;;;;;1.73;1.60;;;;;;;;;;4976523;28;20026;-72
2022/08/01 12:39:34;;;;;;;3.50;1.60;;;;;;;;;;4959220;28;20452;-72
2022/08/01 12:42:00;;;;;;;1.42;1.33;;;;;;;;;;4976840;28;20097;-70
2022/08/01 12:44:28;;;;;;;1.80;1.40;;;;;;;;;;4976677;28;20118;-72
2022/08/01 12:46:54;;;;;;;1.63;1.52;;;;;;;;;;4976713;28;20023;-71
2022/08/01 12:49:21;;;;;;;1.50;1.40;;;;;;;;;;4959031;28;20038;-72
2022/08/01 12:51:47;;;;;;;2.92;1.60;;;;;;;;;;4976354;28;20030;-72
2022/08/01 12:54:13;;;;;;;1.95;1.30;;;;;;;;;;4976437;28;20031;-71
2022/08/01 12:56:39;;;;;;;2.58;1.30;;;;;;;;;;4976224;28;20031;-71
2022/08/01 12:59:22;;;;;;;1.40;1.20;;;;;;;;;;4976233;28;20262;-71
2022/08/01 13:01:48;;;;;;;1.67;1.33;;;;;;;;;;4976116;28;20022;-72
2022/08/01 13:04:14;;;;;;;2.35;1.35;;;;;;;;;;4975960;28;20060;-72
2022/08/01 13:06:41;;;;;;;2.50;1.42;;;;;;;;;;4976059;28;20477;-71
2022/08/01 13:09:08;;;;;;;2.83;1.20;;;;;;;;;;4976102;28;20480;-72
2022/08/01 13:11:36;;;;;;;1.45;1.35;;;;;;;;;;4976008;28;20031;-71
2022/08/01 13:14:02;;;;;;;2.78;1.48;;;;;;;;;;4975962;28;20031;-72
2022/08/01 13:16:28;;;;;;;1.30;1.20;;;;;;;;;;4975904;28;20026;-72
2022/08/01 13:18:56;;;;;;;1.88;1.40;;;;;;;;;;4976176;28;20485;-72
2022/08/01 13:21:25;;;;;;;1.80;1.35;;;;;;;;;;4975779;28;20081;-71
2022/08/01 13:24:09;;;;;;;1.80;1.52;;;;;;;;;;4975937;28;20054;-71
2022/08/01 13:26:42;;;;;;;1.88;1.25;;;;;;;;;;4958427;28;20027;-72
2022/08/01 13:29:09;;;;;;;1.27;1.10;;;;;;;;;;4976703;28;20073;-70
2022/08/01 13:31:36;;;;;;;1.00;1.00;;;;;;;;;;4975632;28;20024;-72
2022/08/01 13:34:02;;;;;;;1.25;1.15;;;;;;;;;;4975849;28;20073;-72
2022/08/01 13:36:29;;;;;;;1.65;1.15;;;;;;;;;;4976066;28;20477;-71
2022/08/01 13:41:40;;;;;;;1.20;1.10;;;;;;;;;;4976004;28;20045;-72
2022/08/01 13:44:08;;;;;;;2.05;1.15;;;;;;;;;;4975296;28;20023;-72
2022/08/01 13:46:35;;;;;;;1.45;1.25;;;;;;;;;;4975365;28;20057;-71
2022/08/01 13:49:01;;;;;;;1.75;1.15;;;;;;;;;;4975602;28;20049;-71
2022/08/01 13:51:28;;;;;;;1.92;1.10;;;;;;;;;;4957904;28;20442;-71
2022/08/01 13:53:54;;;;;;;1.98;1.10;;;;;;;;;;4975182;28;20033;-72
2022/08/01 13:56:20;;;;;;;1.92;1.20;;;;;;;;;;4975451;28;20061;-72
2022/08/01 13:58:46;;;;;;;1.23;1.13;;;;;;;;;;4975081;28;20034;-72
2022/08/01 14:01:12;;;;;;;1.45;1.35;;;;;;;;;;4975036;28;20485;-71
2022/08/01 14:03:38;;;;;;;1.83;1.17;;;;;;;;;;4957538;28;20049;-71
2022/08/01 14:06:05;;;;;;;0.95;0.93;;;;;;;;;;4974987;28;20023;-72
2022/08/01 14:08:31;;;;;;;0.98;0.98;;;;;;;;;;4975247;28;20023;-71
2022/08/01 14:10:58;;;;;;;2.20;1.15;;;;;;;;;;4974920;28;20469;-73
2022/08/01 14:13:25;;;;;;;3.05;1.50;;;;;;;;;;4974858;28;20054;-71
2022/08/01 14:15:51;;;;;;;4.88;1.58;;;;;;;;;;4975044;28;20019;-71
2022/08/01 14:18:17;;;;;;;1.55;1.10;;;;;;;;;;4974698;28;20051;-71
2022/08/01 14:20:44;;;;;;;1.30;1.10;;;;;;;;;;4975083;28;20022;-71
2022/08/01 14:23:10;;;;;;;2.45;1.42;;;;;;;;;;4974994;28;20125;-72
2022/08/01 14:25:37;;;;;;;1.52;1.42;;;;;;;;;;4974917;28;20396;-71
2022/08/01 14:28:03;;;;;;;3.25;1.70;;;;;;;;;;4975236;28;20378;-71
2022/08/01 14:30:30;;;;;;;2.35;1.33;;;;;;;;;;4974706;28;20027;-71
2022/08/01 14:32:56;;;;;;;4.22;1.67;;;;;;;;;;4974571;28;20409;-72
2022/08/01 14:35:22;;;;;;;2.80;1.90;;;;;;;;;;4957172;28;20456;-71
2022/08/01 14:37:48;;;;;;;2.28;1.63;;;;;;;;;;4974851;28;20502;-72
2022/08/01 14:40:14;;;;;;;2.05;1.80;;;;;;;;;;4974140;28;20031;-71
2022/08/01 14:42:40;;;;;;;1.67;1.30;;;;;;;;;;4974504;28;20031;-71
2022/08/01 14:45:10;;;;;;;2.42;1.95;;;;;;;;;;4974389;28;20485;-71
2022/08/01 14:47:36;;;;;;;;;;;;;;;;;;4974850;28;20508;-71
2022/08/01 14:50:02;;;;;;;2.70;1.92;;;;;;;;;;4974433;28;19933;-72